sensor_id;sensor_type;location;lat;lon;timestamp;P1;durP1;ratioP1;P2;durP2;ratioP2
6434;SDS011;3250;42.694;23.278;2023-05-10T00:00:56;5.20;;;4.10;;
6434;SDS011;3250;42.694;23.278;2023-05-10T00:03:22;6.90;;;4.47;;
6434;SDS011;3250;42.694;23.278;2023-05-10T00:05:47;5.23;;;4.50;;
6434;SDS011;3250;42.694;23.278;2023-05-10T00:08:13;5.50;;;4.40;;
6434;SDS011;3250;42.694;23.278;2023-05-10T00:10:38;6.10;;;4.55;;
6434;SDS011;3250;42.694;23.278;2023-05-10T00:13:03;5.00;;;4.50;;
6434;SDS011;3250;42.694;23.278;2023-05-10T00:15:29;5.43;;;4.63;;
6434;SDS011;3250;42.694;23.278;2023-05-10T00:17:55;8.75;;;4.72;;
6434;SDS011;3250;42.694;23.278;2023-05-10T00:20:21;5.07;;;4.15;;
6434;SDS011;3250;42.694;23.278;2023-05-10T00:22:47;4.70;;;4.10;;
6434;SDS011;3250;42.694;23.278;2023-05-10T00:25:12;5.50;;;4.63;;
6434;SDS011;3250;42.694;23.278;2023-05-10T00:27:37;6.57;;;4.53;;
6434;SDS011;3250;42.694;23.278;2023-05-10T00:30:03;5.60;;;4.65;;
6434;SDS011;3250;42.694;23.278;2023-05-10T00:32:29;5.77;;;4.80;;
6434;SDS011;3250;42.694;23.278;2023-05-10T00:34:54;7.17;;;5.53;;
6434;SDS011;3250;42.694;23.278;2023-05-10T00:37:20;6.63;;;5.70;;
6434;SDS011;3250;42.694;23.278;2023-05-10T00:39:45;6.70;;;5.30;;
6434;SDS011;3250;42.694;23.278;2023-05-10T00:42:10;7.70;;;5.50;;
6434;SDS011;3250;42.694;23.278;2023-05-10T00:44:36;7.23;;;5.70;;
6434;SDS011;3250;42.694;23.278;2023-05-10T00:47:02;7.28;;;5.65;;
6434;SDS011;3250;42.694;23.278;2023-05-10T00:49:28;8.33;;;6.47;;
6434;SDS011;3250;42.694;23.278;2023-05-10T00:51:53;7.15;;;5.68;;
6434;SDS011;3250;42.694;23.278;2023-05-10T00:54:19;7.00;;;5.83;;
6434;SDS011;3250;42.694;23.278;2023-05-10T00:56:45;6.18;;;5.57;;
6434;SDS011;3250;42.694;23.278;2023-05-10T00:59:14;6.57;;;5.47;;
6434;SDS011;3250;42.694;23.278;2023-05-10T01:01:43;5.63;;;4.97;;
6434;SDS011;3250;42.694;23.278;2023-05-10T01:04:10;7.80;;;6.80;;
6434;SDS011;3250;42.694;23.278;2023-05-10T01:06:37;9.60;;;6.53;;
6434;SDS011;3250;42.694;23.278;2023-05-10T01:09:03;8.57;;;6.20;;
6434;SDS011;3250;42.694;23.278;2023-05-10T01:11:28;9.80;;;6.37;;
6434;SDS011;3250;42.694;23.278;2023-05-10T01:13:55;8.02;;;6.68;;
6434;SDS011;3250;42.694;23.278;2023-05-10T01:16:22;7.60;;;6.30;;
6434;SDS011;3250;42.694;23.278;2023-05-10T01:18:48;9.63;;;6.90;;
6434;SDS011;3250;42.694;23.278;2023-05-10T01:21:16;6.90;;;6.20;;
6434;SDS011;3250;42.694;23.278;2023-05-10T01:32:14;6.75;;;6.05;;
6434;SDS011;3250;42.694;23.278;2023-05-10T01:35:04;7.38;;;6.28;;
6434;SDS011;3250;42.694;23.278;2023-05-10T01:40:57;6.88;;;6.15;;
6434;SDS011;3250;42.694;23.278;2023-05-10T01:43:02;7.50;;;6.28;;
6434;SDS011;3250;42.694;23.278;2023-05-10T01:45:33;6.65;;;5.50;;
6434;SDS011;3250;42.694;23.278;2023-05-10T01:50:35;5.95;;;4.15;;
6434;SDS011;3250;42.694;23.278;2023-05-10T01:53:06;5.22;;;4.50;;
6434;SDS011;3250;42.694;23.278;2023-05-10T01:55:34;4.45;;;4.05;;
6434;SDS011;3250;42.694;23.278;2023-05-10T01:58:06;4.90;;;4.40;;
6434;SDS011;3250;42.694;23.278;2023-05-10T02:00:35;5.18;;;4.30;;
6434;SDS011;3250;42.694;23.278;2023-05-10T02:03:03;4.40;;;4.00;;
6434;SDS011;3250;42.694;23.278;2023-05-10T02:05:31;4.68;;;3.63;;
6434;SDS011;3250;42.694;23.278;2023-05-10T02:07:58;4.00;;;3.60;;
6434;SDS011;3250;42.694;23.278;2023-05-10T02:10:26;4.53;;;3.90;;
6434;SDS011;3250;42.694;23.278;2023-05-10T02:12:53;6.00;;;4.05;;
6434;SDS011;3250;42.694;23.278;2023-05-10T02:15:20;4.22;;;3.83;;
6434;SDS011;3250;42.694;23.278;2023-05-10T02:17:48;4.03;;;3.50;;
6434;SDS011;3250;42.694;23.278;2023-05-10T02:20:14;4.13;;;3.63;;
6434;SDS011;3250;42.694;23.278;2023-05-10T02:22:41;3.95;;;3.50;;
6434;SDS011;3250;42.694;23.278;2023-05-10T02:25:09;3.22;;;2.83;;
6434;SDS011;3250;42.694;23.278;2023-05-10T02:27:38;2.78;;;2.58;;
6434;SDS011;3250;42.694;23.278;2023-05-10T02:30:05;3.08;;;2.70;;
6434;SDS011;3250;42.694;23.278;2023-05-10T02:32:31;4.50;;;3.00;;
6434;SDS011;3250;42.694;23.278;2023-05-10T02:34:58;6.22;;;2.40;;
6434;SDS011;3250;42.694;23.278;2023-05-10T02:37:26;3.72;;;2.78;;
6434;SDS011;3250;42.694;23.278;2023-05-10T02:39:53;5.78;;;3.30;;
6434;SDS011;3250;42.694;23.278;2023-05-10T02:42:23;4.70;;;3.25;;
6434;SDS011;3250;42.694;23.278;2023-05-10T02:44:52;3.78;;;2.95;;
6434;SDS011;3250;42.694;23.278;2023-05-10T02:47:21;5.82;;;2.97;;
6434;SDS011;3250;42.694;23.278;2023-05-10T02:49:47;4.60;;;3.00;;
6434;SDS011;3250;42.694;23.278;2023-05-10T02:52:13;3.83;;;2.95;;
6434;SDS011;3250;42.694;23.278;2023-05-10T02:54:48;4.35;;;3.00;;
6434;SDS011;3250;42.694;23.278;2023-05-10T02:57:17;3.83;;;2.92;;
6434;SDS011;3250;42.694;23.278;2023-05-10T02:59:47;4.57;;;3.27;;
6434;SDS011;3250;42.694;23.278;2023-05-10T03:02:12;3.80;;;3.20;;
6434;SDS011;3250;42.694;23.278;2023-05-10T03:04:38;4.07;;;2.83;;
6434;SDS011;3250;42.694;23.278;2023-05-10T03:07:04;6.05;;;3.40;;
6434;SDS011;3250;42.694;23.278;2023-05-10T03:09:30;3.95;;;2.88;;
6434;SDS011;3250;42.694;23.278;2023-05-10T03:12:00;5.40;;;3.40;;
6434;SDS011;3250;42.694;23.278;2023-05-10T03:14:47;5.13;;;3.83;;
6434;SDS011;3250;42.694;23.278;2023-05-10T03:17:29;4.55;;;3.63;;
6434;SDS011;3250;42.694;23.278;2023-05-10T03:20:04;7.65;;;3.63;;
6434;SDS011;3250;42.694;23.278;2023-05-10T03:22:37;4.33;;;3.20;;
6434;SDS011;3250;42.694;23.278;2023-05-10T03:25:05;6.20;;;3.37;;
6434;SDS011;3250;42.694;23.278;2023-05-10T03:27:33;3.85;;;3.20;;
6434;SDS011;3250;42.694;23.278;2023-05-10T03:30:01;5.75;;;4.05;;
6434;SDS011;3250;42.694;23.278;2023-05-10T03:32:28;4.80;;;3.70;;
6434;SDS011;3250;42.694;23.278;2023-05-10T03:34:56;4.40;;;3.50;;
6434;SDS011;3250;42.694;23.278;2023-05-10T03:37:22;4.13;;;3.33;;
6434;SDS011;3250;42.694;23.278;2023-05-10T03:39:47;5.13;;;3.53;;
6434;SDS011;3250;42.694;23.278;2023-05-10T03:42:14;4.03;;;3.40;;
6434;SDS011;3250;42.694;23.278;2023-05-10T03:44:39;4.10;;;3.28;;
6434;SDS011;3250;42.694;23.278;2023-05-10T03:47:05;4.23;;;3.67;;
6434;SDS011;3250;42.694;23.278;2023-05-10T03:49:30;4.67;;;3.67;;
6434;SDS011;3250;42.694;23.278;2023-05-10T03:51:55;5.43;;;3.73;;
6434;SDS011;3250;42.694;23.278;2023-05-10T03:54:21;4.47;;;3.73;;
6434;SDS011;3250;42.694;23.278;2023-05-10T03:56:46;5.13;;;3.67;;
6434;SDS011;3250;42.694;23.278;2023-05-10T03:59:13;4.45;;;3.17;;
6434;SDS011;3250;42.694;23.278;2023-05-10T04:01:38;4.70;;;3.80;;
6434;SDS011;3250;42.694;23.278;2023-05-10T04:04:03;4.63;;;3.73;;
6434;SDS011;3250;42.694;23.278;2023-05-10T04:06:29;4.50;;;3.85;;
6434;SDS011;3250;42.694;23.278;2023-05-10T04:08:54;4.95;;;4.10;;
6434;SDS011;3250;42.694;23.278;2023-05-10T04:11:20;5.05;;;3.97;;
6434;SDS011;3250;42.694;23.278;2023-05-10T04:13:46;6.15;;;3.83;;
6434;SDS011;3250;42.694;23.278;2023-05-10T04:16:12;5.00;;;4.00;;
6434;SDS011;3250;42.694;23.278;2023-05-10T04:18:37;5.27;;;3.97;;
6434;SDS011;3250;42.694;23.278;2023-05-10T04:21:04;9.73;;;4.22;;
6434;SDS011;3250;42.694;23.278;2023-05-10T04:23:35;6.97;;;4.20;;
6434;SDS011;3250;42.694;23.278;2023-05-10T04:26:01;4.77;;;3.73;;
6434;SDS011;3250;42.694;23.278;2023-05-10T04:28:27;6.32;;;4.35;;
6434;SDS011;3250;42.694;23.278;2023-05-10T04:30:52;7.03;;;4.07;;
6434;SDS011;3250;42.694;23.278;2023-05-10T04:33:18;6.63;;;4.30;;
6434;SDS011;3250;42.694;23.278;2023-05-10T04:35:43;5.23;;;4.13;;
6434;SDS011;3250;42.694;23.278;2023-05-10T04:38:10;5.68;;;4.07;;
6434;SDS011;3250;42.694;23.278;2023-05-10T04:40:35;6.15;;;4.22;;
6434;SDS011;3250;42.694;23.278;2023-05-10T04:43:00;8.80;;;4.40;;
6434;SDS011;3250;42.694;23.278;2023-05-10T04:45:26;7.37;;;4.40;;
6434;SDS011;3250;42.694;23.278;2023-05-10T04:47:51;4.67;;;3.53;;
6434;SDS011;3250;42.694;23.278;2023-05-10T04:50:17;5.47;;;4.10;;
6434;SDS011;3250;42.694;23.278;2023-05-10T04:52:42;7.43;;;4.17;;
6434;SDS011;3250;42.694;23.278;2023-05-10T04:55:07;6.03;;;4.60;;
6434;SDS011;3250;42.694;23.278;2023-05-10T04:57:34;5.60;;;3.77;;
6434;SDS011;3250;42.694;23.278;2023-05-10T05:00:00;4.80;;;4.00;;
6434;SDS011;3250;42.694;23.278;2023-05-10T05:02:25;5.07;;;4.10;;
6434;SDS011;3250;42.694;23.278;2023-05-10T05:04:51;5.27;;;3.90;;
6434;SDS011;3250;42.694;23.278;2023-05-10T05:07:16;6.13;;;4.03;;
6434;SDS011;3250;42.694;23.278;2023-05-10T05:09:41;6.37;;;3.50;;
6434;SDS011;3250;42.694;23.278;2023-05-10T05:12:07;7.33;;;4.50;;
6434;SDS011;3250;42.694;23.278;2023-05-10T05:14:32;7.43;;;4.00;;
6434;SDS011;3250;42.694;23.278;2023-05-10T05:16:58;6.60;;;4.03;;
6434;SDS011;3250;42.694;23.278;2023-05-10T05:19:23;6.37;;;3.97;;
6434;SDS011;3250;42.694;23.278;2023-05-10T05:21:48;4.93;;;3.70;;
6434;SDS011;3250;42.694;23.278;2023-05-10T05:24:14;5.73;;;4.20;;
6434;SDS011;3250;42.694;23.278;2023-05-10T05:26:40;8.27;;;4.73;;
6434;SDS011;3250;42.694;23.278;2023-05-10T05:29:05;5.73;;;4.27;;
6434;SDS011;3250;42.694;23.278;2023-05-10T05:31:31;5.77;;;4.53;;
6434;SDS011;3250;42.694;23.278;2023-05-10T05:33:56;6.00;;;4.50;;
6434;SDS011;3250;42.694;23.278;2023-05-10T05:36:21;11.30;;;5.00;;
6434;SDS011;3250;42.694;23.278;2023-05-10T05:38:47;6.67;;;4.30;;
6434;SDS011;3250;42.694;23.278;2023-05-10T05:41:13;9.80;;;4.97;;
6434;SDS011;3250;42.694;23.278;2023-05-10T05:43:38;9.00;;;5.40;;
6434;SDS011;3250;42.694;23.278;2023-05-10T05:46:04;7.20;;;4.07;;
6434;SDS011;3250;42.694;23.278;2023-05-10T05:48:29;9.50;;;4.90;;
6434;SDS011;3250;42.694;23.278;2023-05-10T05:50:55;8.50;;;5.13;;
6434;SDS011;3250;42.694;23.278;2023-05-10T05:53:24;9.37;;;5.40;;
6434;SDS011;3250;42.694;23.278;2023-05-10T05:58:23;6.63;;;4.80;;
6434;SDS011;3250;42.694;23.278;2023-05-10T06:00:49;7.53;;;5.63;;
6434;SDS011;3250;42.694;23.278;2023-05-10T06:03:16;7.57;;;5.37;;
6434;SDS011;3250;42.694;23.278;2023-05-10T06:05:41;7.67;;;5.80;;
6434;SDS011;3250;42.694;23.278;2023-05-10T06:08:06;8.20;;;5.00;;
6434;SDS011;3250;42.694;23.278;2023-05-10T06:10:32;12.37;;;5.73;;
6434;SDS011;3250;42.694;23.278;2023-05-10T06:12:57;9.93;;;5.50;;
6434;SDS011;3250;42.694;23.278;2023-05-10T06:15:22;8.70;;;5.23;;
6434;SDS011;3250;42.694;23.278;2023-05-10T06:17:48;9.53;;;4.60;;
6434;SDS011;3250;42.694;23.278;2023-05-10T06:20:14;8.27;;;5.23;;
6434;SDS011;3250;42.694;23.278;2023-05-10T06:22:40;7.00;;;5.23;;
6434;SDS011;3250;42.694;23.278;2023-05-10T06:25:06;7.60;;;5.20;;
6434;SDS011;3250;42.694;23.278;2023-05-10T06:27:32;10.90;;;5.87;;
6434;SDS011;3250;42.694;23.278;2023-05-10T06:29:57;7.80;;;4.57;;
6434;SDS011;3250;42.694;23.278;2023-05-10T06:32:22;7.43;;;4.73;;
6434;SDS011;3250;42.694;23.278;2023-05-10T06:34:48;9.17;;;5.77;;
6434;SDS011;3250;42.694;23.278;2023-05-10T06:37:13;7.20;;;5.17;;
6434;SDS011;3250;42.694;23.278;2023-05-10T06:39:39;7.27;;;4.83;;
6434;SDS011;3250;42.694;23.278;2023-05-10T06:42:04;7.17;;;4.93;;
6434;SDS011;3250;42.694;23.278;2023-05-10T06:44:30;6.03;;;4.70;;
6434;SDS011;3250;42.694;23.278;2023-05-10T06:46:55;8.97;;;4.77;;
6434;SDS011;3250;42.694;23.278;2023-05-10T06:49:21;7.53;;;5.10;;
6434;SDS011;3250;42.694;23.278;2023-05-10T06:51:47;6.47;;;4.37;;
6434;SDS011;3250;42.694;23.278;2023-05-10T06:54:12;7.73;;;4.87;;
6434;SDS011;3250;42.694;23.278;2023-05-10T06:56:37;9.67;;;5.00;;
6434;SDS011;3250;42.694;23.278;2023-05-10T06:59:03;7.20;;;4.50;;
6434;SDS011;3250;42.694;23.278;2023-05-10T07:01:28;8.00;;;5.60;;
6434;SDS011;3250;42.694;23.278;2023-05-10T07:03:53;7.50;;;4.90;;
6434;SDS011;3250;42.694;23.278;2023-05-10T07:06:19;5.67;;;4.07;;
6434;SDS011;3250;42.694;23.278;2023-05-10T07:08:45;7.90;;;5.10;;
6434;SDS011;3250;42.694;23.278;2023-05-10T07:11:10;9.67;;;5.40;;
6434;SDS011;3250;42.694;23.278;2023-05-10T07:13:36;9.13;;;5.10;;
6434;SDS011;3250;42.694;23.278;2023-05-10T07:16:01;6.47;;;4.70;;
6434;SDS011;3250;42.694;23.278;2023-05-10T07:18:27;7.40;;;4.30;;
6434;SDS011;3250;42.694;23.278;2023-05-10T07:20:52;9.20;;;5.07;;
6434;SDS011;3250;42.694;23.278;2023-05-10T07:23:18;5.17;;;3.87;;
6434;SDS011;3250;42.694;23.278;2023-05-10T07:25:44;8.43;;;4.97;;
6434;SDS011;3250;42.694;23.278;2023-05-10T07:28:11;7.10;;;4.67;;
6434;SDS011;3250;42.694;23.278;2023-05-10T07:30:36;7.63;;;5.77;;
6434;SDS011;3250;42.694;23.278;2023-05-10T07:33:02;8.93;;;5.70;;
6434;SDS011;3250;42.694;23.278;2023-05-10T07:35:29;12.17;;;5.60;;
6434;SDS011;3250;42.694;23.278;2023-05-10T07:37:54;5.97;;;4.43;;
6434;SDS011;3250;42.694;23.278;2023-05-10T07:40:20;7.37;;;5.33;;
6434;SDS011;3250;42.694;23.278;2023-05-10T07:42:45;13.07;;;6.73;;
6434;SDS011;3250;42.694;23.278;2023-05-10T07:45:11;7.40;;;5.13;;
6434;SDS011;3250;42.694;23.278;2023-05-10T07:47:36;7.23;;;4.93;;
6434;SDS011;3250;42.694;23.278;2023-05-10T07:50:01;6.07;;;5.03;;
6434;SDS011;3250;42.694;23.278;2023-05-10T07:52:27;6.63;;;4.70;;
6434;SDS011;3250;42.694;23.278;2023-05-10T07:54:52;8.53;;;5.57;;
6434;SDS011;3250;42.694;23.278;2023-05-10T07:57:18;10.00;;;5.70;;
6434;SDS011;3250;42.694;23.278;2023-05-10T07:59:44;10.70;;;6.23;;
6434;SDS011;3250;42.694;23.278;2023-05-10T08:02:10;9.80;;;5.83;;
6434;SDS011;3250;42.694;23.278;2023-05-10T08:04:36;7.83;;;4.47;;
6434;SDS011;3250;42.694;23.278;2023-05-10T08:07:01;7.23;;;5.67;;
6434;SDS011;3250;42.694;23.278;2023-05-10T08:09:27;7.77;;;5.60;;
6434;SDS011;3250;42.694;23.278;2023-05-10T08:11:52;7.60;;;5.50;;
6434;SDS011;3250;42.694;23.278;2023-05-10T08:14:17;10.13;;;6.97;;
6434;SDS011;3250;42.694;23.278;2023-05-10T08:16:43;12.60;;;6.67;;
6434;SDS011;3250;42.694;23.278;2023-05-10T08:19:08;8.90;;;5.80;;
6434;SDS011;3250;42.694;23.278;2023-05-10T08:21:33;7.60;;;5.50;;
6434;SDS011;3250;42.694;23.278;2023-05-10T08:23:59;9.37;;;5.33;;
6434;SDS011;3250;42.694;23.278;2023-05-10T08:26:24;6.90;;;5.47;;
6434;SDS011;3250;42.694;23.278;2023-05-10T08:28:50;11.17;;;6.67;;
6434;SDS011;3250;42.694;23.278;2023-05-10T08:31:16;7.07;;;5.33;;
6434;SDS011;3250;42.694;23.278;2023-05-10T08:33:41;9.00;;;6.17;;
6434;SDS011;3250;42.694;23.278;2023-05-10T08:36:07;7.80;;;5.57;;
6434;SDS011;3250;42.694;23.278;2023-05-10T08:38:32;7.40;;;5.80;;
6434;SDS011;3250;42.694;23.278;2023-05-10T08:40:57;7.70;;;5.53;;
6434;SDS011;3250;42.694;23.278;2023-05-10T08:43:27;6.03;;;4.73;;
6434;SDS011;3250;42.694;23.278;2023-05-10T08:45:56;8.23;;;5.63;;
6434;SDS011;3250;42.694;23.278;2023-05-10T08:48:25;6.23;;;5.00;;
6434;SDS011;3250;42.694;23.278;2023-05-10T08:50:53;9.00;;;5.83;;
6434;SDS011;3250;42.694;23.278;2023-05-10T08:53:20;8.93;;;5.87;;
6434;SDS011;3250;42.694;23.278;2023-05-10T08:55:47;9.60;;;5.73;;
6434;SDS011;3250;42.694;23.278;2023-05-10T08:58:13;8.07;;;6.27;;
6434;SDS011;3250;42.694;23.278;2023-05-10T09:00:39;10.20;;;5.83;;
6434;SDS011;3250;42.694;23.278;2023-05-10T09:03:06;7.30;;;5.40;;
6434;SDS011;3250;42.694;23.278;2023-05-10T09:05:32;7.67;;;6.33;;
6434;SDS011;3250;42.694;23.278;2023-05-10T09:07:57;8.03;;;5.53;;
6434;SDS011;3250;42.694;23.278;2023-05-10T09:10:25;7.77;;;6.10;;
6434;SDS011;3250;42.694;23.278;2023-05-10T09:12:53;9.67;;;6.37;;
6434;SDS011;3250;42.694;23.278;2023-05-10T09:15:18;5.53;;;4.53;;
6434;SDS011;3250;42.694;23.278;2023-05-10T09:17:45;9.33;;;6.30;;
6434;SDS011;3250;42.694;23.278;2023-05-10T09:20:11;7.63;;;5.50;;
6434;SDS011;3250;42.694;23.278;2023-05-10T09:22:36;7.13;;;6.07;;
6434;SDS011;3250;42.694;23.278;2023-05-10T09:25:03;5.70;;;5.10;;
6434;SDS011;3250;42.694;23.278;2023-05-10T09:27:31;9.17;;;6.20;;
6434;SDS011;3250;42.694;23.278;2023-05-10T09:29:57;11.60;;;6.30;;
6434;SDS011;3250;42.694;23.278;2023-05-10T09:32:35;8.70;;;5.80;;
6434;SDS011;3250;42.694;23.278;2023-05-10T09:37:33;6.70;;;4.83;;
6434;SDS011;3250;42.694;23.278;2023-05-10T09:39:58;5.07;;;4.23;;
6434;SDS011;3250;42.694;23.278;2023-05-10T09:42:24;6.90;;;5.57;;
6434;SDS011;3250;42.694;23.278;2023-05-10T09:44:50;7.07;;;5.60;;
6434;SDS011;3250;42.694;23.278;2023-05-10T09:47:18;7.20;;;5.57;;
6434;SDS011;3250;42.694;23.278;2023-05-10T09:49:44;9.67;;;5.87;;
6434;SDS011;3250;42.694;23.278;2023-05-10T09:52:14;8.07;;;5.73;;
6434;SDS011;3250;42.694;23.278;2023-05-10T09:54:42;8.37;;;5.83;;
6434;SDS011;3250;42.694;23.278;2023-05-10T09:57:20;11.43;;;6.40;;
6434;SDS011;3250;42.694;23.278;2023-05-10T09:59:47;11.37;;;5.77;;
6434;SDS011;3250;42.694;23.278;2023-05-10T10:02:12;8.13;;;5.30;;
6434;SDS011;3250;42.694;23.278;2023-05-10T10:04:39;9.40;;;5.90;;
6434;SDS011;3250;42.694;23.278;2023-05-10T10:07:05;9.47;;;5.40;;
6434;SDS011;3250;42.694;23.278;2023-05-10T10:09:31;6.50;;;5.43;;
6434;SDS011;3250;42.694;23.278;2023-05-10T10:11:58;8.20;;;6.07;;
6434;SDS011;3250;42.694;23.278;2023-05-10T10:14:25;6.63;;;5.87;;
6434;SDS011;3250;42.694;23.278;2023-05-10T10:16:50;6.40;;;5.13;;
6434;SDS011;3250;42.694;23.278;2023-05-10T10:19:17;7.23;;;4.93;;
6434;SDS011;3250;42.694;23.278;2023-05-10T10:21:44;7.27;;;5.90;;
6434;SDS011;3250;42.694;23.278;2023-05-10T10:24:09;10.87;;;5.53;;
6434;SDS011;3250;42.694;23.278;2023-05-10T10:26:35;14.53;;;6.20;;
6434;SDS011;3250;42.694;23.278;2023-05-10T10:34:26;7.90;;;5.30;;
6434;SDS011;3250;42.694;23.278;2023-05-10T10:36:54;7.43;;;4.73;;
6434;SDS011;3250;42.694;23.278;2023-05-10T10:39:21;6.60;;;5.17;;
6434;SDS011;3250;42.694;23.278;2023-05-10T10:41:50;6.57;;;4.80;;
6434;SDS011;3250;42.694;23.278;2023-05-10T10:47:07;7.57;;;4.80;;
6434;SDS011;3250;42.694;23.278;2023-05-10T10:54:56;7.50;;;4.67;;
6434;SDS011;3250;42.694;23.278;2023-05-10T10:57:23;6.17;;;4.93;;
6434;SDS011;3250;42.694;23.278;2023-05-10T10:59:48;7.67;;;4.17;;
6434;SDS011;3250;42.694;23.278;2023-05-10T11:02:33;7.00;;;4.47;;
6434;SDS011;3250;42.694;23.278;2023-05-10T11:05:35;6.40;;;4.13;;
6434;SDS011;3250;42.694;23.278;2023-05-10T11:10:50;6.57;;;4.37;;
6434;SDS011;3250;42.694;23.278;2023-05-10T11:13:17;6.10;;;4.97;;
6434;SDS011;3250;42.694;23.278;2023-05-10T11:15:53;5.30;;;4.20;;
6434;SDS011;3250;42.694;23.278;2023-05-10T11:18:19;8.83;;;4.87;;
6434;SDS011;3250;42.694;23.278;2023-05-10T11:21:01;6.33;;;5.37;;
6434;SDS011;3250;42.694;23.278;2023-05-10T11:23:31;7.20;;;5.13;;
6434;SDS011;3250;42.694;23.278;2023-05-10T11:25:58;8.33;;;5.80;;
6434;SDS011;3250;42.694;23.278;2023-05-10T11:28:24;7.60;;;4.43;;
6434;SDS011;3250;42.694;23.278;2023-05-10T11:30:53;5.83;;;4.10;;
6434;SDS011;3250;42.694;23.278;2023-05-10T11:33:19;9.80;;;5.17;;
6434;SDS011;3250;42.694;23.278;2023-05-10T11:35:45;5.37;;;3.70;;
6434;SDS011;3250;42.694;23.278;2023-05-10T11:38:11;5.30;;;4.30;;
6434;SDS011;3250;42.694;23.278;2023-05-10T11:40:38;5.17;;;4.30;;
6434;SDS011;3250;42.694;23.278;2023-05-10T11:43:04;8.50;;;4.47;;
6434;SDS011;3250;42.694;23.278;2023-05-10T11:45:33;9.07;;;4.83;;
6434;SDS011;3250;42.694;23.278;2023-05-10T11:47:59;6.00;;;3.93;;
6434;SDS011;3250;42.694;23.278;2023-05-10T11:50:26;4.60;;;3.80;;
6434;SDS011;3250;42.694;23.278;2023-05-10T11:52:55;8.10;;;4.73;;
6434;SDS011;3250;42.694;23.278;2023-05-10T11:55:22;6.07;;;3.80;;
6434;SDS011;3250;42.694;23.278;2023-05-10T11:57:52;6.13;;;4.43;;
6434;SDS011;3250;42.694;23.278;2023-05-10T12:00:24;9.00;;;4.23;;
6434;SDS011;3250;42.694;23.278;2023-05-10T12:02:50;6.97;;;4.80;;
6434;SDS011;3250;42.694;23.278;2023-05-10T12:05:15;13.83;;;4.80;;
6434;SDS011;3250;42.694;23.278;2023-05-10T12:07:42;5.67;;;4.13;;
6434;SDS011;3250;42.694;23.278;2023-05-10T12:10:11;6.07;;;4.93;;
6434;SDS011;3250;42.694;23.278;2023-05-10T12:12:45;7.27;;;4.80;;
6434;SDS011;3250;42.694;23.278;2023-05-10T12:15:19;6.00;;;4.43;;
6434;SDS011;3250;42.694;23.278;2023-05-10T12:17:46;5.63;;;4.23;;
6434;SDS011;3250;42.694;23.278;2023-05-10T12:20:12;11.87;;;5.10;;
6434;SDS011;3250;42.694;23.278;2023-05-10T12:22:52;13.37;;;4.30;;
6434;SDS011;3250;42.694;23.278;2023-05-10T12:25:20;10.33;;;5.17;;
6434;SDS011;3250;42.694;23.278;2023-05-10T12:27:48;6.03;;;4.97;;
6434;SDS011;3250;42.694;23.278;2023-05-10T12:30:23;13.27;;;5.00;;
6434;SDS011;3250;42.694;23.278;2023-05-10T12:32:58;7.67;;;4.97;;
6434;SDS011;3250;42.694;23.278;2023-05-10T12:35:32;6.67;;;5.30;;
6434;SDS011;3250;42.694;23.278;2023-05-10T12:37:58;7.57;;;5.10;;
6434;SDS011;3250;42.694;23.278;2023-05-10T12:40:23;7.07;;;4.90;;
6434;SDS011;3250;42.694;23.278;2023-05-10T12:42:49;6.93;;;4.80;;
6434;SDS011;3250;42.694;23.278;2023-05-10T12:45:16;8.33;;;5.83;;
6434;SDS011;3250;42.694;23.278;2023-05-10T12:47:42;8.37;;;4.90;;
6434;SDS011;3250;42.694;23.278;2023-05-10T12:50:08;12.20;;;5.47;;
6434;SDS011;3250;42.694;23.278;2023-05-10T12:52:33;6.63;;;4.77;;
6434;SDS011;3250;42.694;23.278;2023-05-10T12:54:59;8.40;;;5.70;;
6434;SDS011;3250;42.694;23.278;2023-05-10T12:57:27;8.63;;;5.43;;
6434;SDS011;3250;42.694;23.278;2023-05-10T12:59:53;6.50;;;5.70;;
6434;SDS011;3250;42.694;23.278;2023-05-10T13:02:19;5.40;;;4.33;;
6434;SDS011;3250;42.694;23.278;2023-05-10T13:04:46;16.87;;;5.73;;
6434;SDS011;3250;42.694;23.278;2023-05-10T13:07:11;7.60;;;5.63;;
6434;SDS011;3250;42.694;23.278;2023-05-10T13:09:39;8.37;;;5.43;;
6434;SDS011;3250;42.694;23.278;2023-05-10T13:12:05;10.90;;;6.33;;
6434;SDS011;3250;42.694;23.278;2023-05-10T13:14:31;7.67;;;5.00;;
6434;SDS011;3250;42.694;23.278;2023-05-10T13:16:56;8.23;;;5.07;;
6434;SDS011;3250;42.694;23.278;2023-05-10T13:19:22;6.47;;;5.00;;
6434;SDS011;3250;42.694;23.278;2023-05-10T13:21:48;9.20;;;5.90;;
6434;SDS011;3250;42.694;23.278;2023-05-10T13:24:13;11.57;;;5.23;;
6434;SDS011;3250;42.694;23.278;2023-05-10T13:26:42;10.60;;;6.23;;
6434;SDS011;3250;42.694;23.278;2023-05-10T13:29:07;7.87;;;5.30;;
6434;SDS011;3250;42.694;23.278;2023-05-10T13:31:33;8.30;;;5.30;;
6434;SDS011;3250;42.694;23.278;2023-05-10T13:34:00;8.77;;;5.50;;
6434;SDS011;3250;42.694;23.278;2023-05-10T13:36:25;8.83;;;5.00;;
6434;SDS011;3250;42.694;23.278;2023-05-10T13:38:51;6.70;;;4.97;;
6434;SDS011;3250;42.694;23.278;2023-05-10T13:41:16;6.97;;;5.47;;
6434;SDS011;3250;42.694;23.278;2023-05-10T13:43:42;8.63;;;5.37;;
6434;SDS011;3250;42.694;23.278;2023-05-10T13:46:08;7.60;;;4.80;;
6434;SDS011;3250;42.694;23.278;2023-05-10T13:48:33;10.37;;;5.37;;
6434;SDS011;3250;42.694;23.278;2023-05-10T13:50:58;8.87;;;5.30;;
6434;SDS011;3250;42.694;23.278;2023-05-10T13:53:24;7.97;;;5.50;;
6434;SDS011;3250;42.694;23.278;2023-05-10T13:55:49;7.90;;;4.97;;
6434;SDS011;3250;42.694;23.278;2023-05-10T13:58:15;10.13;;;5.23;;
6434;SDS011;3250;42.694;23.278;2023-05-10T14:00:40;12.03;;;5.70;;
6434;SDS011;3250;42.694;23.278;2023-05-10T14:03:06;8.93;;;6.10;;
6434;SDS011;3250;42.694;23.278;2023-05-10T14:05:32;10.60;;;5.20;;
6434;SDS011;3250;42.694;23.278;2023-05-10T14:07:57;8.53;;;4.80;;
6434;SDS011;3250;42.694;23.278;2023-05-10T14:10:23;11.37;;;5.53;;
6434;SDS011;3250;42.694;23.278;2023-05-10T14:12:49;12.63;;;6.10;;
6434;SDS011;3250;42.694;23.278;2023-05-10T14:15:15;7.70;;;5.30;;
6434;SDS011;3250;42.694;23.278;2023-05-10T14:17:40;10.77;;;6.10;;
6434;SDS011;3250;42.694;23.278;2023-05-10T14:20:06;8.40;;;5.30;;
6434;SDS011;3250;42.694;23.278;2023-05-10T14:22:32;7.50;;;4.53;;
6434;SDS011;3250;42.694;23.278;2023-05-10T14:24:58;9.30;;;5.57;;
6434;SDS011;3250;42.694;23.278;2023-05-10T14:27:23;7.03;;;4.73;;
6434;SDS011;3250;42.694;23.278;2023-05-10T14:29:49;6.63;;;4.60;;
6434;SDS011;3250;42.694;23.278;2023-05-10T14:32:14;5.93;;;4.57;;
6434;SDS011;3250;42.694;23.278;2023-05-10T14:34:40;9.00;;;5.50;;
6434;SDS011;3250;42.694;23.278;2023-05-10T14:37:05;11.43;;;5.60;;
6434;SDS011;3250;42.694;23.278;2023-05-10T14:39:31;7.70;;;5.63;;
6434;SDS011;3250;42.694;23.278;2023-05-10T14:41:58;10.63;;;5.63;;
6434;SDS011;3250;42.694;23.278;2023-05-10T14:44:23;6.03;;;5.10;;
6434;SDS011;3250;42.694;23.278;2023-05-10T14:46:49;12.10;;;5.50;;
6434;SDS011;3250;42.694;23.278;2023-05-10T14:49:14;11.97;;;5.63;;
6434;SDS011;3250;42.694;23.278;2023-05-10T14:51:40;8.30;;;5.20;;
6434;SDS011;3250;42.694;23.278;2023-05-10T14:54:05;7.37;;;5.57;;
6434;SDS011;3250;42.694;23.278;2023-05-10T14:56:31;8.87;;;4.57;;
6434;SDS011;3250;42.694;23.278;2023-05-10T14:58:56;8.53;;;5.43;;
6434;SDS011;3250;42.694;23.278;2023-05-10T15:01:22;6.10;;;5.00;;
6434;SDS011;3250;42.694;23.278;2023-05-10T15:03:47;10.10;;;5.30;;
6434;SDS011;3250;42.694;23.278;2023-05-10T15:06:14;6.60;;;5.33;;
6434;SDS011;3250;42.694;23.278;2023-05-10T15:08:41;7.47;;;5.77;;
6434;SDS011;3250;42.694;23.278;2023-05-10T15:11:06;6.67;;;5.10;;
6434;SDS011;3250;42.694;23.278;2023-05-10T15:13:31;11.77;;;5.10;;
6434;SDS011;3250;42.694;23.278;2023-05-10T15:15:57;7.07;;;4.87;;
6434;SDS011;3250;42.694;23.278;2023-05-10T15:18:22;10.33;;;5.40;;
6434;SDS011;3250;42.694;23.278;2023-05-10T15:20:48;8.93;;;4.97;;
6434;SDS011;3250;42.694;23.278;2023-05-10T15:23:13;7.03;;;5.23;;
6434;SDS011;3250;42.694;23.278;2023-05-10T15:25:38;7.13;;;4.93;;
6434;SDS011;3250;42.694;23.278;2023-05-10T15:28:04;6.63;;;5.50;;
6434;SDS011;3250;42.694;23.278;2023-05-10T15:30:30;8.38;;;5.72;;
6434;SDS011;3250;42.694;23.278;2023-05-10T15:32:55;8.73;;;5.80;;